sensor_id;sensor_type;location;lat;lon;timestamp;pressure;altitude;pressure_sealevel;temperature;humidity
46506;BME280;32220;49.808;9.968;2022-07-17T00:01:43;99786.78;;;16.67;42.62
46506;BME280;32220;49.808;9.968;2022-07-17T00:04:11;99791.56;;;16.62;42.89
46506;BME280;32220;49.808;9.968;2022-07-17T00:06:40;99806.25;;;16.56;42.72
46506;BME280;32220;49.808;9.968;2022-07-17T00:09:08;99802.41;;;16.47;43.01
46506;BME280;32220;49.808;9.968;2022-07-17T00:11:36;99806.88;;;16.47;43.38
46506;BME280;32220;49.808;9.968;2022-07-17T00:14:04;99796.44;;;16.44;44.31
46506;BME280;32220;49.808;9.968;2022-07-17T00:16:31;99802.00;;;16.41;44.44
46506;BME280;32220;49.808;9.968;2022-07-17T00:18:59;99795.91;;;16.39;43.88
46506;BME280;32220;49.808;9.968;2022-07-17T00:21:27;99790.00;;;16.34;43.76
46506;BME280;32220;49.808;9.968;2022-07-17T00:23:56;99800.72;;;16.34;43.68
46506;BME280;32220;49.808;9.968;2022-07-17T00:26:24;99792.94;;;16.31;43.63
46506;BME280;32220;49.808;9.968;2022-07-17T00:28:52;99793.25;;;16.26;43.76
46506;BME280;32220;49.808;9.968;2022-07-17T00:31:19;99804.78;;;16.27;43.95
46506;BME280;32220;49.808;9.968;2022-07-17T00:33:47;99807.66;;;16.24;43.87
46506;BME280;32220;49.808;9.968;2022-07-17T00:36:15;99803.50;;;16.20;43.68
46506;BME280;32220;49.808;9.968;2022-07-17T00:38:42;99809.09;;;16.16;43.60
46506;BME280;32220;49.808;9.968;2022-07-17T00:41:13;99811.31;;;16.10;43.46
46506;BME280;32220;49.808;9.968;2022-07-17T00:43:41;99783.84;;;15.95;43.85
46506;BME280;32220;49.808;9.968;2022-07-17T00:46:11;99806.50;;;16.02;43.79
46506;BME280;32220;49.808;9.968;2022-07-17T00:48:39;99800.63;;;15.97;43.76
46506;BME280;32220;49.808;9.968;2022-07-17T00:51:08;99806.31;;;15.93;43.78
46506;BME280;32220;49.808;9.968;2022-07-17T00:53:36;99793.91;;;15.79;43.94
46506;BME280;32220;49.808;9.968;2022-07-17T00:56:05;99805.97;;;15.85;44.85
46506;BME280;32220;49.808;9.968;2022-07-17T00:58:35;99802.66;;;15.81;44.61
46506;BME280;32220;49.808;9.968;2022-07-17T01:01:05;99807.34;;;15.77;44.28
46506;BME280;32220;49.808;9.968;2022-07-17T01:03:33;99799.88;;;15.70;44.57
46506;BME280;32220;49.808;9.968;2022-07-17T01:06:02;99806.28;;;15.67;45.00
46506;BME280;32220;49.808;9.968;2022-07-17T01:08:32;99803.91;;;15.63;44.77
46506;BME280;32220;49.808;9.968;2022-07-17T01:11:00;99794.53;;;15.57;45.07
46506;BME280;32220;49.808;9.968;2022-07-17T01:13:29;99794.03;;;15.51;45.05
46506;BME280;32220;49.808;9.968;2022-07-17T01:15:59;99804.91;;;15.48;45.01
46506;BME280;32220;49.808;9.968;2022-07-17T01:18:27;99803.44;;;15.43;45.16
46506;BME280;32220;49.808;9.968;2022-07-17T01:20:54;99812.69;;;15.38;44.96
46506;BME280;32220;49.808;9.968;2022-07-17T01:23:23;99800.81;;;15.29;45.48
46506;BME280;32220;49.808;9.968;2022-07-17T01:25:51;99803.50;;;15.29;45.96
46506;BME280;32220;49.808;9.968;2022-07-17T01:28:19;99806.38;;;15.26;46.25
46506;BME280;32220;49.808;9.968;2022-07-17T01:30:48;99798.66;;;15.22;46.16
46506;BME280;32220;49.808;9.968;2022-07-17T01:33:16;99792.88;;;15.15;46.19
46506;BME280;32220;49.808;9.968;2022-07-17T01:35:44;99802.59;;;15.16;46.43
46506;BME280;32220;49.808;9.968;2022-07-17T01:38:12;99789.44;;;15.13;46.96
46506;BME280;32220;49.808;9.968;2022-07-17T01:40:41;99789.66;;;15.10;47.12
46506;BME280;32220;49.808;9.968;2022-07-17T01:43:09;99799.69;;;15.06;46.54
46506;BME280;32220;49.808;9.968;2022-07-17T01:45:37;99793.69;;;15.03;46.50
46506;BME280;32220;49.808;9.968;2022-07-17T01:48:05;99779.88;;;14.96;46.45
46506;BME280;32220;49.808;9.968;2022-07-17T01:50:33;99797.81;;;14.94;46.86
46506;BME280;32220;49.808;9.968;2022-07-17T01:53:01;99792.78;;;14.90;46.88
46506;BME280;32220;49.808;9.968;2022-07-17T01:55:29;99787.19;;;14.80;46.63
46506;BME280;32220;49.808;9.968;2022-07-17T01:57:58;99797.19;;;14.77;46.91
46506;BME280;32220;49.808;9.968;2022-07-17T02:00:26;99798.34;;;14.72;47.08
46506;BME280;32220;49.808;9.968;2022-07-17T02:02:55;99800.47;;;14.67;46.73
46506;BME280;32220;49.808;9.968;2022-07-17T02:05:22;99793.59;;;14.63;47.74
46506;BME280;32220;49.808;9.968;2022-07-17T02:07:50;99788.56;;;14.59;47.82
46506;BME280;32220;49.808;9.968;2022-07-17T02:10:18;99785.25;;;14.55;47.96
46506;BME280;32220;49.808;9.968;2022-07-17T02:12:46;99786.41;;;14.51;47.92
46506;BME280;32220;49.808;9.968;2022-07-17T02:15:15;99785.63;;;14.49;48.59
46506;BME280;32220;49.808;9.968;2022-07-17T02:17:43;99781.47;;;14.45;48.54
46506;BME280;32220;49.808;9.968;2022-07-17T02:20:12;99780.91;;;14.40;48.43
46506;BME280;32220;49.808;9.968;2022-07-17T02:22:40;99779.25;;;14.37;48.45
46506;BME280;32220;49.808;9.968;2022-07-17T02:25:09;99780.41;;;14.33;48.33
46506;BME280;32220;49.808;9.968;2022-07-17T02:27:37;99769.34;;;14.25;48.07
46506;BME280;32220;49.808;9.968;2022-07-17T02:30:07;99782.59;;;14.27;48.35
46506;BME280;32220;49.808;9.968;2022-07-17T02:32:37;99777.44;;;14.24;48.52
46506;BME280;32220;49.808;9.968;2022-07-17T02:35:07;99777.66;;;14.21;48.62
46506;BME280;32220;49.808;9.968;2022-07-17T02:37:35;99788.50;;;14.18;48.58
46506;BME280;32220;49.808;9.968;2022-07-17T02:40:04;99782.50;;;14.14;48.39
46506;BME280;32220;49.808;9.968;2022-07-17T02:42:32;99787.16;;;14.11;48.57
46506;BME280;32220;49.808;9.968;2022-07-17T02:45:00;99784.13;;;14.02;48.64
46506;BME280;32220;49.808;9.968;2022-07-17T02:47:30;99787.72;;;14.01;48.84
46506;BME280;32220;49.808;9.968;2022-07-17T02:50:00;99780.31;;;13.92;48.79
46506;BME280;32220;49.808;9.968;2022-07-17T02:52:30;99790.19;;;13.90;49.15
46506;BME280;32220;49.808;9.968;2022-07-17T02:54:58;99789.59;;;13.85;49.21
46506;BME280;32220;49.808;9.968;2022-07-17T02:57:25;99789.91;;;13.81;49.24
46506;BME280;32220;49.808;9.968;2022-07-17T02:59:53;99789.22;;;13.77;49.68
46506;BME280;32220;49.808;9.968;2022-07-17T03:02:21;99783.34;;;13.72;50.09
46506;BME280;32220;49.808;9.968;2022-07-17T03:04:49;99784.47;;;13.68;49.94
46506;BME280;32220;49.808;9.968;2022-07-17T03:07:19;99779.31;;;13.65;50.00
46506;BME280;32220;49.808;9.968;2022-07-17T03:09:46;99786.53;;;13.63;49.92
46506;BME280;32220;49.808;9.968;2022-07-17T03:12:14;99782.38;;;13.59;49.97
46506;BME280;32220;49.808;9.968;2022-07-17T03:14:42;99789.69;;;13.55;49.99
46506;BME280;32220;49.808;9.968;2022-07-17T03:17:10;99787.28;;;13.51;50.29
46506;BME280;32220;49.808;9.968;2022-07-17T03:19:37;99782.13;;;13.48;50.53
46506;BME280;32220;49.808;9.968;2022-07-17T03:22:05;99782.69;;;13.39;50.17
46506;BME280;32220;49.808;9.968;2022-07-17T03:24:34;99786.13;;;13.41;50.71
46506;BME280;32220;49.808;9.968;2022-07-17T03:27:02;99788.94;;;13.38;50.67
46506;BME280;32220;49.808;9.968;2022-07-17T03:29:30;99790.97;;;13.34;50.46
46506;BME280;32220;49.808;9.968;2022-07-17T03:31:58;99792.00;;;13.32;50.61
46506;BME280;32220;49.808;9.968;2022-07-17T03:34:25;99786.06;;;13.26;50.92
46506;BME280;32220;49.808;9.968;2022-07-17T03:36:53;99788.72;;;13.26;51.11
46506;BME280;32220;49.808;9.968;2022-07-17T03:39:21;99790.63;;;13.24;50.84
46506;BME280;32220;49.808;9.968;2022-07-17T03:41:50;99792.53;;;13.22;51.30
46506;BME280;32220;49.808;9.968;2022-07-17T03:44:18;99790.81;;;13.21;51.28
46506;BME280;32220;49.808;9.968;2022-07-17T03:46:45;99790.91;;;13.20;51.85
46506;BME280;32220;49.808;9.968;2022-07-17T03:49:13;99790.13;;;13.18;51.78
46506;BME280;32220;49.808;9.968;2022-07-17T03:51:41;99791.06;;;13.17;52.07
46506;BME280;32220;49.808;9.968;2022-07-17T03:54:09;99790.22;;;13.16;51.55
46506;BME280;32220;49.808;9.968;2022-07-17T03:56:37;99792.09;;;13.14;51.73
46506;BME280;32220;49.808;9.968;2022-07-17T03:59:06;99797.41;;;13.14;51.73
46506;BME280;32220;49.808;9.968;2022-07-17T04:01:34;99789.44;;;13.14;51.55
46506;BME280;32220;49.808;9.968;2022-07-17T04:04:02;99794.75;;;13.14;51.72
46506;BME280;32220;49.808;9.968;2022-07-17T04:06:29;99797.34;;;13.16;51.28
46506;BME280;32220;49.808;9.968;2022-07-17T04:08:57;99800.69;;;13.19;51.43
46506;BME280;32220;49.808;9.968;2022-07-17T04:11:25;99804.00;;;13.23;51.90
46506;BME280;32220;49.808;9.968;2022-07-17T04:13:53;99797.66;;;13.25;51.72
46506;BME280;32220;49.808;9.968;2022-07-17T04:16:22;99793.88;;;13.29;53.44
46506;BME280;32220;49.808;9.968;2022-07-17T04:18:50;99796.16;;;13.36;53.65
46506;BME280;32220;49.808;9.968;2022-07-17T04:21:18;99801.22;;;13.40;53.35
46506;BME280;32220;49.808;9.968;2022-07-17T04:23:46;99806.84;;;13.50;52.68
46506;BME280;32220;49.808;9.968;2022-07-17T04:26:14;99799.47;;;13.55;52.94
46506;BME280;32220;49.808;9.968;2022-07-17T04:28:41;99795.13;;;13.68;52.57
46506;BME280;32220;49.808;9.968;2022-07-17T04:31:09;99799.09;;;13.75;52.19
46506;BME280;32220;49.808;9.968;2022-07-17T04:33:38;99806.66;;;13.83;52.74
46506;BME280;32220;49.808;9.968;2022-07-17T04:36:06;99802.56;;;13.91;52.30
46506;BME280;32220;49.808;9.968;2022-07-17T04:38:34;99794.94;;;13.99;52.39
46506;BME280;32220;49.808;9.968;2022-07-17T04:41:02;99800.59;;;14.09;52.34
46506;BME280;32220;49.808;9.968;2022-07-17T04:43:29;99796.59;;;14.16;51.95
46506;BME280;32220;49.808;9.968;2022-07-17T04:45:57;99802.19;;;14.26;52.02
46506;BME280;32220;49.808;9.968;2022-07-17T04:48:24;99790.09;;;14.34;52.13
46506;BME280;32220;49.808;9.968;2022-07-17T04:50:54;99788.69;;;14.43;53.47
46506;BME280;32220;49.808;9.968;2022-07-17T04:53:21;99791.53;;;14.54;53.05
46506;BME280;32220;49.808;9.968;2022-07-17T04:55:49;99804.00;;;14.68;52.40
46506;BME280;32220;49.808;9.968;2022-07-17T04:58:18;99796.25;;;14.78;51.75
46506;BME280;32220;49.808;9.968;2022-07-17T05:00:46;99802.50;;;14.91;51.77
46506;BME280;32220;49.808;9.968;2022-07-17T05:03:14;99807.97;;;15.02;52.44
46506;BME280;32220;49.808;9.968;2022-07-17T05:05:42;99811.00;;;15.10;51.59
46506;BME280;32220;49.808;9.968;2022-07-17T05:08:11;99812.13;;;15.20;51.55
46506;BME280;32220;49.808;9.968;2022-07-17T05:10:39;99820.25;;;15.31;51.45
46506;BME280;32220;49.808;9.968;2022-07-17T05:13:06;99820.50;;;15.41;51.07
46506;BME280;32220;49.808;9.968;2022-07-17T05:15:34;99829.50;;;15.53;50.99
46506;BME280;32220;49.808;9.968;2022-07-17T05:18:02;99822.50;;;15.64;51.53
46506;BME280;32220;49.808;9.968;2022-07-17T05:20:29;99822.06;;;15.70;50.74
46506;BME280;32220;49.808;9.968;2022-07-17T05:22:57;99834.50;;;15.84;51.26
46506;BME280;32220;49.808;9.968;2022-07-17T05:25:26;99837.28;;;15.95;50.59
46506;BME280;32220;49.808;9.968;2022-07-17T05:27:54;99833.25;;;16.02;50.70
46506;BME280;32220;49.808;9.968;2022-07-17T05:30:21;99837.72;;;16.14;50.28
46506;BME280;32220;49.808;9.968;2022-07-17T05:32:49;99838.59;;;16.28;49.96
46506;BME280;32220;49.808;9.968;2022-07-17T05:35:17;99840.28;;;16.41;49.59
46506;BME280;32220;49.808;9.968;2022-07-17T05:37:45;99841.97;;;16.55;49.86
46506;BME280;32220;49.808;9.968;2022-07-17T05:40:13;99839.31;;;16.68;49.32
46506;BME280;32220;49.808;9.968;2022-07-17T05:42:42;99838.28;;;16.81;49.28
46506;BME280;32220;49.808;9.968;2022-07-17T05:45:10;99839.97;;;16.95;48.96
46506;BME280;32220;49.808;9.968;2022-07-17T05:47:38;99842.59;;;17.08;48.93
46506;BME280;32220;49.808;9.968;2022-07-17T05:50:06;99842.44;;;17.22;48.55
46506;BME280;32220;49.808;9.968;2022-07-17T05:52:33;99845.16;;;17.33;48.43
46506;BME280;32220;49.808;9.968;2022-07-17T05:55:01;99856.44;;;17.49;48.50
46506;BME280;32220;49.808;9.968;2022-07-17T05:57:29;99858.88;;;17.65;48.42
46506;BME280;32220;49.808;9.968;2022-07-17T05:59:58;99859.53;;;17.80;47.71
46506;BME280;32220;49.808;9.968;2022-07-17T06:02:25;99866.25;;;17.97;47.54
46506;BME280;32220;49.808;9.968;2022-07-17T06:04:53;99860.59;;;18.12;47.30
46506;BME280;32220;49.808;9.968;2022-07-17T06:07:21;99868.19;;;18.29;46.92
46506;BME280;32220;49.808;9.968;2022-07-17T06:09:49;99871.34;;;18.46;45.76
46506;BME280;32220;49.808;9.968;2022-07-17T06:12:16;99872.00;;;18.60;45.88
46506;BME280;32220;49.808;9.968;2022-07-17T06:14:44;99866.72;;;18.81;45.48
46506;BME280;32220;49.808;9.968;2022-07-17T06:17:13;99873.31;;;18.99;45.44
46506;BME280;32220;49.808;9.968;2022-07-17T06:19:41;99877.44;;;19.15;44.87
46506;BME280;32220;49.808;9.968;2022-07-17T06:22:09;99876.44;;;19.27;44.82
46506;BME280;32220;49.808;9.968;2022-07-17T06:24:36;99879.66;;;19.42;44.22
46506;BME280;32220;49.808;9.968;2022-07-17T06:27:04;99818.09;;;19.18;43.63
46506;BME280;32220;49.808;9.968;2022-07-17T06:29:32;99884.50;;;19.70;43.45
46506;BME280;32220;49.808;9.968;2022-07-17T06:32:00;99890.91;;;19.90;43.37
46506;BME280;32220;49.808;9.968;2022-07-17T06:34:29;99902.75;;;20.08;42.78
46506;BME280;32220;49.808;9.968;2022-07-17T06:36:56;99890.53;;;20.15;41.85
46506;BME280;32220;49.808;9.968;2022-07-17T06:39:24;99909.28;;;20.47;42.09
46506;BME280;32220;49.808;9.968;2022-07-17T06:41:52;99924.03;;;20.73;40.74
46506;BME280;32220;49.808;9.968;2022-07-17T06:44:20;99912.91;;;20.88;40.66
46506;BME280;32220;49.808;9.968;2022-07-17T06:46:48;99928.25;;;21.06;40.34
46506;BME280;32220;49.808;9.968;2022-07-17T06:49:17;99931.84;;;21.16;39.96
46506;BME280;32220;49.808;9.968;2022-07-17T06:51:46;99936.72;;;21.23;39.58
46506;BME280;32220;49.808;9.968;2022-07-17T06:54:14;99929.25;;;21.36;39.47
46506;BME280;32220;49.808;9.968;2022-07-17T06:56:42;99930.25;;;21.54;39.27
46506;BME280;32220;49.808;9.968;2022-07-17T07:01:37;99926.59;;;21.94;38.51
46506;BME280;32220;49.808;9.968;2022-07-17T07:04:05;99948.38;;;22.21;38.34
46506;BME280;32220;49.808;9.968;2022-07-17T07:06:33;99939.41;;;22.30;38.08
46506;BME280;32220;49.808;9.968;2022-07-17T07:09:02;99953.00;;;22.57;37.80
46506;BME280;32220;49.808;9.968;2022-07-17T07:11:31;99940.16;;;22.79;37.22
46506;BME280;32220;49.808;9.968;2022-07-17T07:13:59;99950.91;;;22.98;36.66
46506;BME280;32220;49.808;9.968;2022-07-17T07:16:27;99940.31;;;23.14;36.70
46506;BME280;32220;49.808;9.968;2022-07-17T07:18:55;99951.03;;;23.34;35.75
46506;BME280;32220;49.808;9.968;2022-07-17T07:21:22;99945.53;;;23.53;36.06
46506;BME280;32220;49.808;9.968;2022-07-17T07:23:52;99934.91;;;23.69;35.62
46506;BME280;32220;49.808;9.968;2022-07-17T07:26:22;99944.50;;;23.81;35.10
46506;BME280;32220;49.808;9.968;2022-07-17T07:28:50;99942.31;;;24.03;34.89
46506;BME280;32220;49.808;9.968;2022-07-17T07:31:17;99946.03;;;24.37;34.04
46506;BME280;32220;49.808;9.968;2022-07-17T07:33:45;99945.44;;;24.95;33.74
46506;BME280;32220;49.808;9.968;2022-07-17T07:36:13;99970.03;;;25.77;30.77
46506;BME280;32220;49.808;9.968;2022-07-17T07:38:41;99983.66;;;26.99;29.91
46506;BME280;32220;49.808;9.968;2022-07-17T07:41:08;99981.19;;;27.99;28.51
46506;BME280;32220;49.808;9.968;2022-07-17T07:43:38;99998.78;;;28.65;26.40
46506;BME280;32220;49.808;9.968;2022-07-17T07:46:05;100005.56;;;29.50;26.57
46506;BME280;32220;49.808;9.968;2022-07-17T07:48:33;100013.03;;;30.71;24.75
46506;BME280;32220;49.808;9.968;2022-07-17T07:51:01;100024.28;;;31.80;23.70
46506;BME280;32220;49.808;9.968;2022-07-17T07:53:29;100018.78;;;32.40;23.61
46506;BME280;32220;49.808;9.968;2022-07-17T07:55:56;100018.88;;;32.73;22.85
46506;BME280;32220;49.808;9.968;2022-07-17T07:58:24;100017.94;;;32.40;22.70
46506;BME280;32220;49.808;9.968;2022-07-17T08:00:54;100013.19;;;31.88;23.00
46506;BME280;32220;49.808;9.968;2022-07-17T08:03:21;100010.44;;;31.53;23.50
46506;BME280;32220;49.808;9.968;2022-07-17T08:05:49;100022.25;;;31.95;22.59
46506;BME280;32220;49.808;9.968;2022-07-17T08:08:17;100023.69;;;33.11;22.18
46506;BME280;32220;49.808;9.968;2022-07-17T08:10:44;100028.53;;;34.69;21.47
46506;BME280;32220;49.808;9.968;2022-07-17T08:13:12;100033.53;;;36.20;19.64
46506;BME280;32220;49.808;9.968;2022-07-17T08:15:40;100036.91;;;37.28;19.15
46506;BME280;32220;49.808;9.968;2022-07-17T08:18:09;100034.72;;;37.54;18.29
46506;BME280;32220;49.808;9.968;2022-07-17T08:20:37;100022.44;;;36.80;18.64
46506;BME280;32220;49.808;9.968;2022-07-17T08:23:05;100025.56;;;36.72;18.28
46506;BME280;32220;49.808;9.968;2022-07-17T08:25:34;100029.75;;;37.79;17.75
46506;BME280;32220;49.808;9.968;2022-07-17T08:28:03;100037.91;;;38.88;16.57
46506;BME280;32220;49.808;9.968;2022-07-17T08:30:30;100031.66;;;39.69;16.33
46506;BME280;32220;49.808;9.968;2022-07-17T08:33:01;100024.03;;;40.25;15.88
46506;BME280;32220;49.808;9.968;2022-07-17T08:35:31;100040.97;;;40.50;15.50
46506;BME280;32220;49.808;9.968;2022-07-17T08:37:59;100030.94;;;40.22;15.45
46506;BME280;32220;49.808;9.968;2022-07-17T08:40:29;100028.50;;;39.61;16.12
46506;BME280;32220;49.808;9.968;2022-07-17T08:42:59;100020.72;;;39.19;16.10
46506;BME280;32220;49.808;9.968;2022-07-17T08:45:27;100018.00;;;39.63;15.92
46506;BME280;32220;49.808;9.968;2022-07-17T08:47:56;100017.47;;;40.09;15.63
46506;BME280;32220;49.808;9.968;2022-07-17T08:50:26;100020.28;;;40.63;15.06
46506;BME280;32220;49.808;9.968;2022-07-17T08:52:57;100020.47;;;40.83;14.74
46506;BME280;32220;49.808;9.968;2022-07-17T08:55:25;100017.66;;;40.78;14.60
46506;BME280;32220;49.808;9.968;2022-07-17T08:57:54;100028.03;;;40.61;14.81
46506;BME280;32220;49.808;9.968;2022-07-17T09:00:23;100007.47;;;40.08;14.96
46506;BME280;32220;49.808;9.968;2022-07-17T09:02:59;100010.56;;;39.46;15.40
46506;BME280;32220;49.808;9.968;2022-07-17T09:05:29;100009.06;;;39.56;15.66
46506;BME280;32220;49.808;9.968;2022-07-17T09:07:59;100002.13;;;39.58;15.27
46506;BME280;32220;49.808;9.968;2022-07-17T09:10:32;99995.72;;;38.80;15.70
46506;BME280;32220;49.808;9.968;2022-07-17T09:13:01;99993.09;;;37.72;16.50
46506;BME280;32220;49.808;9.968;2022-07-17T09:15:33;99988.84;;;37.06;16.89
46506;BME280;32220;49.808;9.968;2022-07-17T09:18:01;99978.63;;;36.72;16.81
46506;BME280;32220;49.808;9.968;2022-07-17T09:20:29;99969.09;;;36.67;17.28
46506;BME280;32220;49.808;9.968;2022-07-17T09:23:00;99969.53;;;36.41;17.51
46506;BME280;32220;49.808;9.968;2022-07-17T09:25:35;99958.44;;;36.59;17.11
46506;BME280;32220;49.808;9.968;2022-07-17T09:28:04;99972.03;;;36.96;16.96
46506;BME280;32220;49.808;9.968;2022-07-17T09:30:35;99972.84;;;36.85;17.06
46506;BME280;32220;49.808;9.968;2022-07-17T09:33:06;99976.41;;;36.62;17.16
46506;BME280;32220;49.808;9.968;2022-07-17T09:35:44;99975.28;;;36.28;17.12
46506;BME280;32220;49.808;9.968;2022-07-17T09:38:24;99982.75;;;35.79;17.52
46506;BME280;32220;49.808;9.968;2022-07-17T09:41:08;99985.66;;;35.84;18.34
46506;BME280;32220;49.808;9.968;2022-07-17T09:43:41;99989.75;;;35.93;17.48
46506;BME280;32220;49.808;9.968;2022-07-17T09:46:15;99997.97;;;36.12;17.23
46506;BME280;32220;49.808;9.968;2022-07-17T09:48:45;99985.44;;;36.57;17.06
46506;BME280;32220;49.808;9.968;2022-07-17T09:51:20;99971.91;;;37.02;16.50
46506;BME280;32220;49.808;9.968;2022-07-17T09:53:50;99971.72;;;37.56;16.38
46506;BME280;32220;49.808;9.968;2022-07-17T09:56:20;99969.34;;;38.61;16.02
46506;BME280;32220;49.808;9.968;2022-07-17T09:58:50;99983.81;;;40.28;14.39
46506;BME280;32220;49.808;9.968;2022-07-17T10:01:20;99984.47;;;41.46;14.06
46506;BME280;32220;49.808;9.968;2022-07-17T10:03:48;99982.66;;;41.72;13.45
46506;BME280;32220;49.808;9.968;2022-07-17T10:06:18;99974.75;;;40.69;14.60
46506;BME280;32220;49.808;9.968;2022-07-17T10:08:45;99967.88;;;39.47;15.57
46506;BME280;32220;49.808;9.968;2022-07-17T10:11:15;99967.97;;;38.47;16.05
46506;BME280;32220;49.808;9.968;2022-07-17T10:13:46;99963.25;;;37.74;16.85
46506;BME280;32220;49.808;9.968;2022-07-17T10:16:23;99971.78;;;37.09;16.27
46506;BME280;32220;49.808;9.968;2022-07-17T10:18:51;99962.97;;;36.54;16.39
46506;BME280;32220;49.808;9.968;2022-07-17T10:21:22;99955.28;;;36.56;17.17
46506;BME280;32220;49.808;9.968;2022-07-17T10:24:07;99974.78;;;37.08;16.10
46506;BME280;32220;49.808;9.968;2022-07-17T10:26:42;99980.03;;;37.67;16.05
46506;BME280;32220;49.808;9.968;2022-07-17T10:29:30;99980.06;;;38.41;15.20
46506;BME280;32220;49.808;9.968;2022-07-17T10:32:02;99977.19;;;38.19;15.15
46506;BME280;32220;49.808;9.968;2022-07-17T10:34:38;99955.97;;;37.68;15.82
46506;BME280;32220;49.808;9.968;2022-07-17T10:37:17;99958.38;;;37.53;16.46
46506;BME280;32220;49.808;9.968;2022-07-17T10:39:56;99952.91;;;37.81;16.15
46506;BME280;32220;49.808;9.968;2022-07-17T10:42:55;99956.28;;;38.12;15.56
46506;BME280;32220;49.808;9.968;2022-07-17T10:45:26;99957.94;;;38.13;15.74
46506;BME280;32220;49.808;9.968;2022-07-17T10:47:59;99961.91;;;38.17;15.67
46506;BME280;32220;49.808;9.968;2022-07-17T10:50:30;99963.44;;;37.67;15.67
46506;BME280;32220;49.808;9.968;2022-07-17T10:53:07;99955.53;;;37.13;15.97
46506;BME280;32220;49.808;9.968;2022-07-17T10:55:36;99955.81;;;36.76;16.59
46506;BME280;32220;49.808;9.968;2022-07-17T10:58:19;99962.13;;;36.53;16.24
46506;BME280;32220;49.808;9.968;2022-07-17T11:01:03;99964.16;;;36.46;16.25
46506;BME280;32220;49.808;9.968;2022-07-17T11:03:37;99968.81;;;36.34;16.38
46506;BME280;32220;49.808;9.968;2022-07-17T11:06:07;99966.91;;;36.34;16.65
46506;BME280;32220;49.808;9.968;2022-07-17T11:08:39;99961.97;;;36.48;16.79
46506;BME280;32220;49.808;9.968;2022-07-17T11:11:07;99960.06;;;36.49;16.62
46506;BME280;32220;49.808;9.968;2022-07-17T11:13:37;99963.19;;;36.52;16.29
46506;BME280;32220;49.808;9.968;2022-07-17T11:16:04;99971.22;;;36.42;15.88
46506;BME280;32220;49.808;9.968;2022-07-17T11:18:34;99959.69;;;36.22;16.26
46506;BME280;32220;49.808;9.968;2022-07-17T11:21:03;99956.78;;;35.98;16.04
46506;BME280;32220;49.808;9.968;2022-07-17T11:23:33;99913.81;;;35.61;16.77
46506;BME280;32220;49.808;9.968;2022-07-17T11:26:03;99948.75;;;35.85;16.76
46506;BME280;32220;49.808;9.968;2022-07-17T11:28:34;99954.72;;;35.82;16.54
46506;BME280;32220;49.808;9.968;2022-07-17T11:31:14;99952.63;;;35.78;17.16
46506;BME280;32220;49.808;9.968;2022-07-17T11:33:50;99898.31;;;35.48;16.90
46506;BME280;32220;49.808;9.968;2022-07-17T11:36:23;99943.22;;;35.85;16.44
46506;BME280;32220;49.808;9.968;2022-07-17T11:38:52;99925.59;;;35.98;16.83
46506;BME280;32220;49.808;9.968;2022-07-17T11:41:20;99918.19;;;36.40;16.38
46506;BME280;32220;49.808;9.968;2022-07-17T11:43:48;99925.56;;;36.69;16.13
46506;BME280;32220;49.808;9.968;2022-07-17T11:46:17;99934.75;;;37.10;16.24
46506;BME280;32220;49.808;9.968;2022-07-17T11:48:46;99936.63;;;37.68;15.78
46506;BME280;32220;49.808;9.968;2022-07-17T11:51:14;99935.66;;;38.36;15.22
46506;BME280;32220;49.808;9.968;2022-07-17T11:53:42;99911.06;;;39.06;15.17
46506;BME280;32220;49.808;9.968;2022-07-17T11:56:21;99927.81;;;40.68;14.28
46506;BME280;32220;49.808;9.968;2022-07-17T11:58:49;99934.28;;;41.88;13.30
46506;BME280;32220;49.808;9.968;2022-07-17T12:01:18;99924.63;;;42.77;12.83
46506;BME280;32220;49.808;9.968;2022-07-17T12:03:56;99946.44;;;43.59;11.82
46506;BME280;32220;49.808;9.968;2022-07-17T12:06:24;99943.50;;;43.85;11.86
46506;BME280;32220;49.808;9.968;2022-07-17T12:08:52;99935.88;;;44.39;12.06
46506;BME280;32220;49.808;9.968;2022-07-17T12:11:20;99940.88;;;45.53;10.86
46506;BME280;32220;49.808;9.968;2022-07-17T12:13:48;99944.41;;;46.39;10.04
46506;BME280;32220;49.808;9.968;2022-07-17T12:16:24;99934.25;;;46.89;10.51
46506;BME280;32220;49.808;9.968;2022-07-17T12:19:03;99929.22;;;47.32;10.34
46506;BME280;32220;49.808;9.968;2022-07-17T12:21:32;99930.97;;;47.83;9.92
46506;BME280;32220;49.808;9.968;2022-07-17T12:24:03;99936.38;;;48.15;8.90
46506;BME280;32220;49.808;9.968;2022-07-17T12:26:31;99936.06;;;48.17;9.01
46506;BME280;32220;49.808;9.968;2022-07-17T12:28:59;99941.50;;;48.58;8.63
46506;BME280;32220;49.808;9.968;2022-07-17T12:31:28;99931.97;;;48.68;9.42
46506;BME280;32220;49.808;9.968;2022-07-17T12:33:57;99915.84;;;49.21;8.98
46506;BME280;32220;49.808;9.968;2022-07-17T12:36:25;99935.88;;;49.85;8.74
46506;BME280;32220;49.808;9.968;2022-07-17T12:38:53;99924.31;;;50.13;8.36
46506;BME280;32220;49.808;9.968;2022-07-17T12:41:21;99933.44;;;50.27;8.61
46506;BME280;32220;49.808;9.968;2022-07-17T12:43:49;99930.25;;;50.54;8.41
46506;BME280;32220;49.808;9.968;2022-07-17T12:46:16;99925.91;;;50.65;8.34
46506;BME280;32220;49.808;9.968;2022-07-17T12:48:45;99933.16;;;50.84;8.29
46506;BME280;32220;49.808;9.968;2022-07-17T12:51:13;99919.69;;;50.98;7.83
46506;BME280;32220;49.808;9.968;2022-07-17T12:53:42;99924.22;;;51.20;7.61
46506;BME280;32220;49.808;9.968;2022-07-17T12:56:10;99921.16;;;51.04;7.58
46506;BME280;32220;49.808;9.968;2022-07-17T12:58:38;99922.59;;;50.63;7.84
46506;BME280;32220;49.808;9.968;2022-07-17T13:01:06;99903.19;;;50.62;7.69
46506;BME280;32220;49.808;9.968;2022-07-17T13:03:34;99913.53;;;51.05;7.50
46506;BME280;32220;49.808;9.968;2022-07-17T13:06:03;99916.09;;;51.18;7.43
46506;BME280;32220;49.808;9.968;2022-07-17T13:08:31;99915.34;;;51.39;7.39
46506;BME280;32220;49.808;9.968;2022-07-17T13:10:59;99905.59;;;51.57;7.56
46506;BME280;32220;49.808;9.968;2022-07-17T13:13:27;99899.75;;;51.62;7.38